Weimar, Texas
Current Conditions -  °F | °C
As of 12:35 PM on Sunday 21 Dec 2014 (Local Time) from K66R Reporting Station
Overcast Overcast  
Wind Chill: 14°   Ceiling: 1400
Heat Index: 14°   Visibility: 10mi
Dew Point: 10°   Wind: 5mph
Humidity: 79%   Direction: 90°E
Pressure: 30.03"   Gusts: NA
Location:  29.7°N, 96.78°W
Report Text: K66R 211835Z AUTO 09004KT 10SM OVC014 14/10 A3003 RMK AO2 T01350100
Loading
Personal Weather Stations






























Interactive Weather Map New forecast layout! Learn more

10-Day Weather Forecast

Advertisements
Track Severe Weather on mobile